Time;durP1;ratioP1;P1;durP2;ratioP2;P2;SDS_P1;SDS_P2;PMS_P1;PMS_P2;Temp;Humidity;BMP_temperature;BMP_pressure;BME280_temperature;BME280_humidity;BME280_pressure;Samples;Min_cycle;Max_cycle;Signal;HPM_P1;HPM_P2
2022/04/13 00:01:43;;;;;;;58.35;27.40;;;;;;;;;;5068656;28;20896;-82
2022/04/13 00:04:09;;;;;;;63.70;26.55;;;;;;;;;;5070776;28;20023;-82
2022/04/13 00:06:38;;;;;;;61.13;25.73;;;;;;;;;;5050285;28;20654;-82
2022/04/13 00:09:06;;;;;;;63.38;28.25;;;;;;;;;;5077277;28;20055;-82
2022/04/13 00:11:32;;;;;;;68.07;27.23;;;;;;;;;;5067201;28;20137;-81
2022/04/13 00:13:57;;;;;;;71.45;29.20;;;;;;;;;;5068121;28;20024;-76
2022/04/13 00:16:23;;;;;;;70.00;29.65;;;;;;;;;;5081254;28;20033;-76
2022/04/13 00:18:48;;;;;;;71.75;28.42;;;;;;;;;;5068169;28;20469;-76
2022/04/13 00:21:14;;;;;;;68.55;27.30;;;;;;;;;;5062847;28;20036;-76
2022/04/13 00:23:39;;;;;;;63.63;28.10;;;;;;;;;;5042604;28;20080;-77
2022/04/13 00:26:05;;;;;;;69.13;28.35;;;;;;;;;;5034591;28;20029;-76
2022/04/13 00:28:30;;;;;;;58.35;26.60;;;;;;;;;;5067468;28;20047;-76
2022/04/13 00:30:56;;;;;;;73.53;29.65;;;;;;;;;;5060909;28;20033;-76
2022/04/13 00:33:21;;;;;;;76.70;30.17;;;;;;;;;;5065648;28;20063;-76
2022/04/13 00:35:47;;;;;;;84.82;31.58;;;;;;;;;;5086061;28;20123;-76
2022/04/13 00:38:12;;;;;;;78.85;31.05;;;;;;;;;;5066387;28;20035;-76
2022/04/13 00:40:41;;;;;;;89.97;34.03;;;;;;;;;;5064406;28;21195;-77
2022/04/13 00:43:07;;;;;;;77.05;30.77;;;;;;;;;;5050654;28;20035;-81
2022/04/13 00:45:33;;;;;;;73.40;30.55;;;;;;;;;;5064847;28;20491;-81
2022/04/13 00:48:03;;;;;;;82.45;31.67;;;;;;;;;;5068123;28;20112;-81
2022/04/13 00:50:29;;;;;;;88.43;32.28;;;;;;;;;;5065131;28;20053;-81
2022/04/13 00:52:58;;;;;;;83.28;32.50;;;;;;;;;;5066739;28;20052;-81
2022/04/13 00:55:26;;;;;;;79.00;31.92;;;;;;;;;;5082964;28;20043;-82
2022/04/13 00:57:53;;;;;;;80.07;32.38;;;;;;;;;;5064576;28;20020;-81
2022/04/13 01:00:19;;;;;;;88.43;32.75;;;;;;;;;;5047718;28;20052;-82
2022/04/13 01:02:45;;;;;;;79.28;32.75;;;;;;;;;;5050462;28;20032;-81
2022/04/13 01:05:12;;;;;;;85.93;33.88;;;;;;;;;;5046083;28;20028;-82
2022/04/13 01:07:39;;;;;;;94.80;34.58;;;;;;;;;;5065116;28;20029;-82
2022/04/13 01:10:06;;;;;;;83.53;33.00;;;;;;;;;;5065194;28;20055;-82
2022/04/13 01:12:33;;;;;;;92.28;37.17;;;;;;;;;;5083175;28;20664;-81
2022/04/13 01:14:59;;;;;;;93.53;34.08;;;;;;;;;;5069167;28;20040;-81
2022/04/13 01:17:24;;;;;;;82.55;35.00;;;;;;;;;;5067793;28;20044;-82
2022/04/13 01:19:50;;;;;;;86.97;34.67;;;;;;;;;;5046978;28;20524;-82
2022/04/13 01:22:25;;;;;;;96.90;37.28;;;;;;;;;;5051413;28;20485;-81
2022/04/13 01:24:51;;;;;;;91.07;36.22;;;;;;;;;;5065009;28;20518;-82
2022/04/13 01:27:17;;;;;;;95.60;37.67;;;;;;;;;;5066847;28;20029;-82
2022/04/13 01:29:49;;;;;;;100.63;38.60;;;;;;;;;;5086610;28;20036;-82
2022/04/13 01:32:15;;;;;;;92.90;37.17;;;;;;;;;;5069146;28;20038;-81
2022/04/13 01:34:50;;;;;;;88.65;37.60;;;;;;;;;;5066793;28;20044;-81
2022/04/13 01:37:17;;;;;;;92.07;39.35;;;;;;;;;;5068644;28;20021;-82
2022/04/13 01:39:43;;;;;;;88.75;37.20;;;;;;;;;;5059392;28;20369;-81
2022/04/13 01:42:09;;;;;;;91.93;37.45;;;;;;;;;;5083427;28;20492;-82
2022/04/13 01:44:35;;;;;;;99.88;38.63;;;;;;;;;;5074728;28;20024;-82
2022/04/13 01:47:00;;;;;;;92.00;37.33;;;;;;;;;;5035340;28;20028;-83
2022/04/13 01:49:26;;;;;;;94.90;39.75;;;;;;;;;;5060379;28;20445;-83
2022/04/13 01:51:51;;;;;;;88.35;38.78;;;;;;;;;;5084611;28;20119;-82
2022/04/13 01:54:17;;;;;;;94.22;38.55;;;;;;;;;;5044974;28;20503;-82
2022/04/13 01:56:42;;;;;;;88.93;39.38;;;;;;;;;;5075208;28;20047;-82
2022/04/13 01:59:08;;;;;;;100.38;38.90;;;;;;;;;;5083099;28;20042;-83
2022/04/13 02:01:35;;;;;;;113.35;41.50;;;;;;;;;;5033704;28;20031;-81
2022/04/13 02:04:01;;;;;;;97.00;39.28;;;;;;;;;;5053014;28;20048;-82
2022/04/13 02:06:27;;;;;;;100.65;39.60;;;;;;;;;;5058191;28;20047;-80
2022/04/13 02:08:52;;;;;;;95.65;40.08;;;;;;;;;;5065458;28;20474;-82
2022/04/13 02:11:18;;;;;;;98.35;39.83;;;;;;;;;;5063970;28;20033;-79
2022/04/13 02:13:43;;;;;;;95.45;39.25;;;;;;;;;;5069358;28;20048;-80
2022/04/13 02:16:09;;;;;;;97.78;38.72;;;;;;;;;;5066554;28;20032;-83
2022/04/13 02:18:35;;;;;;;96.55;37.17;;;;;;;;;;5055875;28;20047;-75
2022/04/13 02:21:00;;;;;;;91.07;38.60;;;;;;;;;;5051229;28;20421;-77
2022/04/13 02:23:26;;;;;;;98.05;40.42;;;;;;;;;;5048944;28;20140;-77
2022/04/13 02:25:51;;;;;;;92.10;38.70;;;;;;;;;;5068105;28;20406;-77
2022/04/13 02:28:17;;;;;;;98.72;38.15;;;;;;;;;;5052633;28;20032;-77
2022/04/13 02:30:42;;;;;;;88.70;37.83;;;;;;;;;;5055872;28;20706;-77
2022/04/13 02:33:08;;;;;;;95.93;39.22;;;;;;;;;;5069226;28;20028;-77
2022/04/13 02:35:33;;;;;;;97.55;38.55;;;;;;;;;;5068529;28;20043;-77
2022/04/13 02:37:59;;;;;;;96.13;39.45;;;;;;;;;;5068480;28;20534;-76
2022/04/13 02:40:24;;;;;;;100.10;41.28;;;;;;;;;;5068204;28;20036;-77
2022/04/13 02:42:50;;;;;;;94.40;39.00;;;;;;;;;;5056309;28;20517;-78
2022/04/13 02:45:15;;;;;;;106.07;42.63;;;;;;;;;;5050649;28;20033;-77
2022/04/13 02:47:41;;;;;;;96.85;40.05;;;;;;;;;;5037454;28;20576;-77
2022/04/13 02:50:07;;;;;;;92.25;37.90;;;;;;;;;;5070704;28;20029;-77
2022/04/13 02:52:34;;;;;;;92.43;38.25;;;;;;;;;;5068017;28;20103;-77
2022/04/13 02:55:00;;;;;;;95.78;38.38;;;;;;;;;;5068576;28;20105;-77
2022/04/13 02:57:28;;;;;;;89.03;36.58;;;;;;;;;;5072647;28;20033;-77
2022/04/13 02:59:53;;;;;;;88.10;36.30;;;;;;;;;;5054893;28;20040;-77
2022/04/13 03:02:19;;;;;;;83.82;36.80;;;;;;;;;;5062421;28;20035;-74
2022/04/13 03:04:49;;;;;;;93.40;38.20;;;;;;;;;;5080171;28;20033;-75
2022/04/13 03:07:16;;;;;;;90.75;36.50;;;;;;;;;;5066702;28;20024;-75
2022/04/13 03:09:42;;;;;;;81.68;36.13;;;;;;;;;;5067912;28;20031;-75
2022/04/13 03:12:09;;;;;;;85.45;38.22;;;;;;;;;;5085180;28;20029;-76
2022/04/13 03:14:35;;;;;;;93.95;37.83;;;;;;;;;;5056783;28;20503;-75
2022/04/13 03:17:01;;;;;;;86.15;36.15;;;;;;;;;;5062118;28;20479;-75
2022/04/13 03:19:27;;;;;;;81.35;35.83;;;;;;;;;;5084675;28;20035;-76
2022/04/13 03:21:54;;;;;;;79.63;36.50;;;;;;;;;;5069877;28;20461;-76
2022/04/13 03:24:24;;;;;;;87.38;36.70;;;;;;;;;;5064324;28;20482;-76
2022/04/13 03:26:50;;;;;;;80.07;35.20;;;;;;;;;;5078135;28;20065;-76
2022/04/13 03:29:16;;;;;;;82.22;35.72;;;;;;;;;;5073003;28;20803;-76
2022/04/13 03:31:42;;;;;;;78.45;33.85;;;;;;;;;;5076461;28;20113;-76
2022/04/13 03:34:08;;;;;;;70.40;34.10;;;;;;;;;;5070774;28;20155;-76
2022/04/13 03:36:34;;;;;;;79.28;34.25;;;;;;;;;;5050878;28;20032;-75
2022/04/13 03:39:00;;;;;;;79.10;31.90;;;;;;;;;;5048556;28;20047;-75
2022/04/13 03:41:25;;;;;;;74.18;32.13;;;;;;;;;;5052819;28;20032;-76
2022/04/13 03:43:51;;;;;;;74.57;32.55;;;;;;;;;;5050782;28;20505;-75
2022/04/13 03:46:16;;;;;;;73.40;32.95;;;;;;;;;;5060505;28;20516;-76
2022/04/13 03:48:42;;;;;;;68.70;32.45;;;;;;;;;;5070264;28;20028;-76
2022/04/13 03:51:07;;;;;;;71.60;30.23;;;;;;;;;;5081888;28;20518;-76
2022/04/13 03:53:33;;;;;;;73.20;31.88;;;;;;;;;;5050108;28;20024;-76
2022/04/13 03:55:58;;;;;;;72.88;31.13;;;;;;;;;;5059298;28;20046;-75
2022/04/13 03:58:24;;;;;;;76.88;32.08;;;;;;;;;;5049787;28;20496;-75
2022/04/13 04:00:50;;;;;;;67.82;30.75;;;;;;;;;;5074626;28;20062;-76
2022/04/13 04:03:15;;;;;;;71.38;30.98;;;;;;;;;;5053292;28;20032;-75
2022/04/13 04:05:41;;;;;;;74.95;31.27;;;;;;;;;;5052983;28;20398;-76
2022/04/13 04:08:07;;;;;;;62.50;29.30;;;;;;;;;;5051110;28;20044;-76
2022/04/13 04:10:32;;;;;;;64.38;28.67;;;;;;;;;;5070947;28;20104;-76
2022/04/13 04:12:58;;;;;;;61.72;29.35;;;;;;;;;;5068628;28;20040;-76
2022/04/13 04:15:24;;;;;;;65.75;29.10;;;;;;;;;;5065672;28;20068;-75
2022/04/13 04:17:49;;;;;;;65.43;28.88;;;;;;;;;;5080810;28;20024;-76
2022/04/13 04:20:14;;;;;;;67.38;27.83;;;;;;;;;;5084379;28;20518;-75
2022/04/13 04:22:40;;;;;;;62.40;28.23;;;;;;;;;;5067143;28;20042;-75
2022/04/13 04:25:08;;;;;;;64.18;28.17;;;;;;;;;;5047734;28;20048;-76
2022/04/13 04:27:34;;;;;;;55.70;25.23;;;;;;;;;;5067143;28;20114;-75
2022/04/13 04:30:00;;;;;;;63.28;28.55;;;;;;;;;;5071675;28;20073;-74
2022/04/13 04:32:25;;;;;;;63.65;27.65;;;;;;;;;;5084243;28;20029;-75
2022/04/13 04:34:51;;;;;;;60.75;26.98;;;;;;;;;;5071017;28;20055;-75
2022/04/13 04:37:17;;;;;;;65.50;28.13;;;;;;;;;;5067756;28;20505;-76
2022/04/13 04:39:42;;;;;;;70.07;29.85;;;;;;;;;;5050861;28;20036;-77
2022/04/13 04:42:08;;;;;;;69.80;27.95;;;;;;;;;;5066111;28;20040;-76
2022/04/13 04:44:34;;;;;;;54.67;26.73;;;;;;;;;;5048552;28;20020;-75
2022/04/13 04:46:59;;;;;;;67.63;29.25;;;;;;;;;;5049808;28;20039;-76
2022/04/13 04:49:25;;;;;;;65.65;28.45;;;;;;;;;;5055545;28;20033;-75
2022/04/13 04:51:50;;;;;;;59.60;28.73;;;;;;;;;;5029331;28;20085;-76
2022/04/13 04:54:16;;;;;;;64.68;28.17;;;;;;;;;;5057938;28;20043;-76
2022/04/13 04:56:41;;;;;;;66.43;27.70;;;;;;;;;;5082472;28;20452;-76
2022/04/13 04:59:07;;;;;;;61.42;27.52;;;;;;;;;;5042184;28;20029;-75
2022/04/13 05:01:32;;;;;;;64.75;28.90;;;;;;;;;;5067071;28;20027;-76
2022/04/13 05:03:58;;;;;;;64.72;29.23;;;;;;;;;;5062220;28;20108;-76
2022/04/13 05:06:27;;;;;;;63.28;28.02;;;;;;;;;;5065868;28;20499;-76
2022/04/13 05:08:53;;;;;;;63.65;26.80;;;;;;;;;;5063610;28;20051;-76
2022/04/13 05:11:18;;;;;;;56.25;25.17;;;;;;;;;;5070641;28;20491;-75
2022/04/13 05:13:47;;;;;;;61.83;25.17;;;;;;;;;;5070352;28;20031;-76
2022/04/13 05:16:14;;;;;;;64.45;26.02;;;;;;;;;;5067966;28;20095;-75
2022/04/13 05:18:40;;;;;;;49.17;23.73;;;;;;;;;;5086403;28;20604;-75
2022/04/13 05:21:06;;;;;;;54.05;24.20;;;;;;;;;;5069281;28;20028;-75
2022/04/13 05:23:31;;;;;;;54.67;24.30;;;;;;;;;;5057807;28;20067;-82
2022/04/13 05:25:57;;;;;;;55.22;24.77;;;;;;;;;;5067719;28;20517;-81
2022/04/13 05:28:22;;;;;;;56.97;25.13;;;;;;;;;;5053114;28;20051;-81
2022/04/13 05:30:48;;;;;;;47.83;22.45;;;;;;;;;;5035973;28;20032;-81
2022/04/13 05:33:13;;;;;;;48.65;23.30;;;;;;;;;;5058895;28;20028;-81
2022/04/13 05:35:39;;;;;;;45.88;21.55;;;;;;;;;;5077464;28;20024;-82
2022/04/13 05:38:05;;;;;;;47.65;22.65;;;;;;;;;;5071941;28;20090;-81
2022/04/13 05:40:31;;;;;;;45.03;22.35;;;;;;;;;;5069035;28;20032;-81
2022/04/13 05:42:57;;;;;;;57.25;23.83;;;;;;;;;;5055226;28;20063;-81
2022/04/13 05:45:22;;;;;;;47.28;22.27;;;;;;;;;;5070989;28;20084;-81
2022/04/13 05:47:48;;;;;;;45.92;21.13;;;;;;;;;;5067757;28;20030;-81
2022/04/13 05:50:14;;;;;;;45.28;22.38;;;;;;;;;;5071317;28;20058;-81
2022/04/13 05:52:40;;;;;;;56.45;22.88;;;;;;;;;;5068682;28;20496;-81
2022/04/13 05:55:08;;;;;;;49.83;22.08;;;;;;;;;;5048724;28;20115;-82
2022/04/13 05:57:34;;;;;;;48.33;20.70;;;;;;;;;;5068749;28;20082;-82
2022/04/13 06:00:00;;;;;;;44.15;19.98;;;;;;;;;;5068449;28;20021;-81
2022/04/13 06:02:25;;;;;;;41.90;20.08;;;;;;;;;;5067300;28;20454;-81
2022/04/13 06:04:51;;;;;;;46.13;18.52;;;;;;;;;;5069666;28;20105;-81
2022/04/13 06:07:16;;;;;;;40.20;20.95;;;;;;;;;;5038622;28;20025;-81
2022/04/13 06:09:42;;;;;;;40.15;19.10;;;;;;;;;;5069478;28;20031;-81
2022/04/13 06:12:08;;;;;;;47.40;20.15;;;;;;;;;;5056065;28;20036;-82
2022/04/13 06:14:33;;;;;;;41.00;18.95;;;;;;;;;;5067743;28;20060;-81
2022/04/13 06:16:59;;;;;;;41.15;18.75;;;;;;;;;;5081824;28;20070;-81
2022/04/13 06:19:24;;;;;;;42.90;18.13;;;;;;;;;;5055326;28;20365;-81
2022/04/13 06:21:50;;;;;;;36.65;16.90;;;;;;;;;;5066662;28;20037;-82
2022/04/13 06:24:16;;;;;;;44.42;16.65;;;;;;;;;;5070980;28;20075;-76
2022/04/13 06:26:42;;;;;;;35.40;17.58;;;;;;;;;;5066042;28;20047;-75
2022/04/13 06:29:07;;;;;;;38.20;17.65;;;;;;;;;;5066351;28;20025;-75
2022/04/13 06:31:33;;;;;;;40.97;17.63;;;;;;;;;;5062070;28;20525;-75
2022/04/13 06:33:58;;;;;;;46.25;17.92;;;;;;;;;;5069124;28;20033;-74
2022/04/13 06:36:24;;;;;;;38.05;17.13;;;;;;;;;;5069697;28;20028;-74
2022/04/13 06:38:49;;;;;;;41.17;17.35;;;;;;;;;;5066839;28;20036;-74
2022/04/13 06:41:15;;;;;;;42.95;18.63;;;;;;;;;;5083533;28;20498;-74
2022/04/13 06:43:40;;;;;;;38.88;18.73;;;;;;;;;;5066819;28;20690;-75
2022/04/13 06:46:07;;;;;;;37.33;19.00;;;;;;;;;;5084866;28;20008;-74
2022/04/13 06:48:33;;;;;;;35.30;15.20;;;;;;;;;;5066206;28;20418;-77
2022/04/13 06:50:59;;;;;;;35.08;17.40;;;;;;;;;;5066448;28;20565;-76
2022/04/13 06:53:25;;;;;;;35.05;15.82;;;;;;;;;;5086391;28;20093;-77
2022/04/13 06:55:52;;;;;;;34.70;16.13;;;;;;;;;;5068373;28;20017;-77
2022/04/13 06:58:18;;;;;;;41.60;16.58;;;;;;;;;;5078367;28;20446;-77
2022/04/13 07:00:44;;;;;;;34.28;15.13;;;;;;;;;;5048296;28;20040;-76
2022/04/13 07:03:10;;;;;;;37.97;15.52;;;;;;;;;;5085043;28;20491;-75
2022/04/13 07:05:35;;;;;;;32.72;14.88;;;;;;;;;;5063095;28;20071;-80
2022/04/13 07:08:02;;;;;;;35.45;15.75;;;;;;;;;;5069322;28;20044;-81
2022/04/13 07:10:30;;;;;;;31.02;15.38;;;;;;;;;;5052909;28;20031;-76
2022/04/13 07:12:56;;;;;;;29.65;14.43;;;;;;;;;;5068731;28;20036;-74
2022/04/13 07:15:22;;;;;;;35.55;15.40;;;;;;;;;;5051953;28;20556;-75
2022/04/13 07:17:47;;;;;;;34.97;14.32;;;;;;;;;;5064365;28;20040;-76
2022/04/13 07:20:14;;;;;;;34.53;14.18;;;;;;;;;;5051507;28;20033;-75
2022/04/13 07:22:46;;;;;;;28.60;13.70;;;;;;;;;;5066184;28;20048;-74
2022/04/13 07:25:13;;;;;;;34.22;13.80;;;;;;;;;;5070327;28;20040;-75
2022/04/13 07:27:38;;;;;;;29.63;12.93;;;;;;;;;;5059270;28;20033;-75
2022/04/13 07:30:05;;;;;;;28.42;12.15;;;;;;;;;;5071332;28;20102;-75
2022/04/13 07:32:30;;;;;;;24.00;10.88;;;;;;;;;;5054582;28;20020;-76
2022/04/13 07:34:59;;;;;;;22.02;9.52;;;;;;;;;;5052101;28;20499;-75
2022/04/13 07:37:25;;;;;;;19.27;8.38;;;;;;;;;;5066197;28;20030;-75
2022/04/13 07:39:52;;;;;;;21.25;9.18;;;;;;;;;;5069250;28;20111;-74
2022/04/13 07:42:26;;;;;;;21.73;10.13;;;;;;;;;;5061857;28;20035;-75
2022/04/13 07:44:53;;;;;;;21.85;8.88;;;;;;;;;;5068318;28;20024;-75
2022/04/13 07:47:20;;;;;;;19.52;10.10;;;;;;;;;;5072734;28;20033;-74
2022/04/13 07:49:46;;;;;;;25.38;10.35;;;;;;;;;;5058468;28;20044;-74
2022/04/13 07:52:12;;;;;;;21.08;9.15;;;;;;;;;;5065232;28;20684;-77
2022/04/13 07:54:39;;;;;;;19.58;8.23;;;;;;;;;;5069092;28;20103;-74
2022/04/13 07:57:04;;;;;;;26.15;9.48;;;;;;;;;;5064221;28;20040;-75
2022/04/13 07:59:30;;;;;;;16.92;9.10;;;;;;;;;;5045262;28;20064;-75
2022/04/13 08:01:55;;;;;;;15.75;7.82;;;;;;;;;;5050202;28;20596;-75
2022/04/13 08:04:21;;;;;;;21.52;8.57;;;;;;;;;;5034909;28;20297;-75
2022/04/13 08:06:47;;;;;;;18.90;8.43;;;;;;;;;;5063010;28;20032;-75
2022/04/13 08:09:13;;;;;;;18.95;8.95;;;;;;;;;;5049812;28;20669;-74
2022/04/13 08:11:38;;;;;;;19.17;8.45;;;;;;;;;;5067685;28;20069;-74
2022/04/13 08:14:04;;;;;;;14.38;7.25;;;;;;;;;;5050130;28;20067;-74
2022/04/13 08:16:29;;;;;;;19.00;8.70;;;;;;;;;;5054772;28;20027;-77
2022/04/13 08:18:55;;;;;;;15.48;8.05;;;;;;;;;;5055012;28;20040;-74
2022/04/13 08:21:20;;;;;;;17.05;8.13;;;;;;;;;;5066676;28;20554;-74
2022/04/13 08:23:46;;;;;;;15.70;6.57;;;;;;;;;;5050605;28;20430;-75
2022/04/13 08:26:11;;;;;;;18.40;6.68;;;;;;;;;;5050884;28;20607;-75
2022/04/13 08:28:37;;;;;;;11.32;5.70;;;;;;;;;;5067727;28;20050;-74
2022/04/13 08:31:04;;;;;;;17.65;5.88;;;;;;;;;;5068028;28;20039;-75
2022/04/13 08:33:30;;;;;;;13.40;6.05;;;;;;;;;;5052530;28;20115;-75
2022/04/13 08:35:56;;;;;;;12.20;4.65;;;;;;;;;;5062640;28;20032;-74
2022/04/13 08:38:22;;;;;;;8.73;4.72;;;;;;;;;;5070986;28;20044;-74
2022/04/13 08:40:59;;;;;;;12.25;5.13;;;;;;;;;;5066704;28;20516;-75
2022/04/13 08:43:44;;;;;;;8.77;4.15;;;;;;;;;;5071307;28;20027;-75
2022/04/13 08:46:23;;;;;;;11.02;4.78;;;;;;;;;;5084664;28;20124;-74
2022/04/13 08:48:51;;;;;;;11.75;4.30;;;;;;;;;;5088559;28;20028;-75
2022/04/13 08:51:20;;;;;;;10.23;3.70;;;;;;;;;;5061538;28;20048;-75
2022/04/13 08:53:49;;;;;;;8.68;3.60;;;;;;;;;;5083201;28;20044;-75
2022/04/13 08:56:18;;;;;;;10.27;3.65;;;;;;;;;;5065160;28;20037;-76
2022/04/13 08:59:19;;;;;;;13.30;4.07;;;;;;;;;;5066071;28;20036;-75
2022/04/13 09:02:03;;;;;;;7.65;3.20;;;;;;;;;;5030609;28;20037;-75
2022/04/13 09:04:35;;;;;;;9.32;3.28;;;;;;;;;;5070208;28;20059;-75
2022/04/13 09:07:04;;;;;;;9.25;2.85;;;;;;;;;;5069728;28;20128;-75
2022/04/13 09:09:58;;;;;;;9.48;3.30;;;;;;;;;;5061883;28;20032;-74
2022/04/13 09:12:25;;;;;;;7.45;2.70;;;;;;;;;;5083172;28;20498;-74
2022/04/13 09:14:51;;;;;;;10.55;2.97;;;;;;;;;;5069371;28;20055;-74
2022/04/13 09:17:17;;;;;;;7.15;2.17;;;;;;;;;;5048481;28;20021;-74
2022/04/13 09:19:46;;;;;;;9.55;2.53;;;;;;;;;;5067174;28;20043;-74
2022/04/13 09:22:12;;;;;;;8.27;2.58;;;;;;;;;;5077114;28;20028;-74
2022/04/13 09:24:38;;;;;;;11.23;3.13;;;;;;;;;;5066353;28;20098;-80
2022/04/13 09:27:04;;;;;;;5.40;2.35;;;;;;;;;;5066471;28;20439;-80
2022/04/13 09:29:30;;;;;;;8.43;3.63;;;;;;;;;;5067369;28;20028;-80
2022/04/13 09:31:55;;;;;;;9.90;3.15;;;;;;;;;;5047473;28;20040;-79
2022/04/13 09:34:21;;;;;;;9.70;3.05;;;;;;;;;;5066946;28;20063;-79
2022/04/13 09:36:48;;;;;;;11.75;3.10;;;;;;;;;;5062922;28;20033;-79
2022/04/13 09:39:15;;;;;;;5.82;2.53;;;;;;;;;;5066414;28;20133;-80
2022/04/13 09:41:41;;;;;;;11.15;3.58;;;;;;;;;;5065273;28;20081;-79
2022/04/13 09:44:14;;;;;;;4.50;2.75;;;;;;;;;;5067642;28;20139;-78
2022/04/13 09:46:41;;;;;;;8.45;3.47;;;;;;;;;;5067023;28;20028;-80
2022/04/13 09:49:18;;;;;;;8.63;3.33;;;;;;;;;;5053313;28;20048;-80
2022/04/13 09:51:48;;;;;;;9.43;2.88;;;;;;;;;;5069431;28;20445;-81
2022/04/13 09:54:13;;;;;;;8.13;3.33;;;;;;;;;;5072562;28;20115;-75
2022/04/13 09:56:47;;;;;;;9.43;3.30;;;;;;;;;;5073449;28;20527;-76
2022/04/13 09:59:23;;;;;;;6.90;3.15;;;;;;;;;;5069747;28;20030;-76
2022/04/13 10:01:49;;;;;;;8.57;3.45;;;;;;;;;;5070157;28;20024;-75
2022/04/13 10:04:24;;;;;;;8.02;3.40;;;;;;;;;;5062949;28;20019;-75
2022/04/13 10:06:50;;;;;;;15.80;3.58;;;;;;;;;;5065181;28;20043;-75
2022/04/13 10:09:15;;;;;;;9.70;3.15;;;;;;;;;;5070486;28;20362;-76
2022/04/13 10:12:03;;;;;;;7.38;3.45;;;;;;;;;;5036492;28;20102;-75
2022/04/13 10:14:29;;;;;;;13.10;2.97;;;;;;;;;;5065272;28;20032;-76
2022/04/13 10:17:06;;;;;;;10.70;3.75;;;;;;;;;;5068531;28;20025;-75
2022/04/13 10:19:31;;;;;;;11.85;2.97;;;;;;;;;;5086820;28;20236;-75
2022/04/13 10:21:58;;;;;;;7.63;2.90;;;;;;;;;;5072425;28;20039;-75
2022/04/13 10:24:29;;;;;;;10.80;3.28;;;;;;;;;;5083421;28;20549;-75
2022/04/13 10:27:17;;;;;;;8.57;3.00;;;;;;;;;;5069938;28;20509;-76
2022/04/13 10:29:49;;;;;;;11.88;2.95;;;;;;;;;;5065701;28;20040;-74
2022/04/13 10:32:25;;;;;;;9.77;3.42;;;;;;;;;;5071574;28;20040;-75
2022/04/13 10:34:59;;;;;;;10.20;3.85;;;;;;;;;;5067357;28;20027;-75
2022/04/13 10:37:26;;;;;;;13.93;2.63;;;;;;;;;;5064587;28;20399;-76
2022/04/13 10:39:52;;;;;;;11.13;2.55;;;;;;;;;;5065729;28;20392;-75
2022/04/13 10:42:19;;;;;;;8.98;2.80;;;;;;;;;;5070272;28;20036;-77
2022/04/13 10:45:05;;;;;;;6.63;2.70;;;;;;;;;;5072056;28;20029;-74
2022/04/13 10:47:49;;;;;;;8.00;2.67;;;;;;;;;;5071506;28;20047;-77
2022/04/13 10:50:20;;;;;;;11.40;3.20;;;;;;;;;;5073303;28;20091;-74
2022/04/13 10:52:59;;;;;;;9.15;2.60;;;;;;;;;;5069814;28;20024;-79
2022/04/13 10:55:27;;;;;;;10.45;2.67;;;;;;;;;;5070439;28;20021;-79
2022/04/13 10:58:17;;;;;;;11.48;2.72;;;;;;;;;;5069994;28;20048;-78
2022/04/13 11:00:46;;;;;;;7.30;2.28;;;;;;;;;;5065639;28;20404;-80
2022/04/13 11:03:11;;;;;;;7.90;2.80;;;;;;;;;;5068482;28;20082;-80
2022/04/13 11:05:40;;;;;;;7.68;2.80;;;;;;;;;;5068166;28;20036;-79
2022/04/13 11:08:19;;;;;;;8.73;3.13;;;;;;;;;;5077042;28;20029;-79
2022/04/13 11:10:48;;;;;;;9.15;3.88;;;;;;;;;;5083849;28;20033;-79
2022/04/13 11:13:16;;;;;;;11.27;3.45;;;;;;;;;;5056211;28;20032;-77
2022/04/13 11:15:46;;;;;;;18.40;4.10;;;;;;;;;;5063142;28;20389;-78
2022/04/13 11:18:20;;;;;;;10.07;2.63;;;;;;;;;;5067326;28;20029;-78
2022/04/13 11:21:01;;;;;;;9.48;3.63;;;;;;;;;;5061342;28;20036;-80
2022/04/13 11:23:54;;;;;;;9.50;3.20;;;;;;;;;;5078559;28;20049;-74
2022/04/13 11:26:34;;;;;;;10.43;2.83;;;;;;;;;;5063474;28;20063;-75
2022/04/13 11:29:21;;;;;;;7.78;2.60;;;;;;;;;;5066738;28;20111;-75
2022/04/13 11:32:02;;;;;;;15.40;3.05;;;;;;;;;;5063360;28;20028;-75
2022/04/13 11:35:03;;;;;;;10.70;3.00;;;;;;;;;;5070215;28;20391;-75
2022/04/13 11:37:34;;;;;;;5.97;3.25;;;;;;;;;;5063948;28;20059;-75
2022/04/13 11:40:04;;;;;;;8.93;3.83;;;;;;;;;;5076058;28;20034;-75
2022/04/13 11:42:39;;;;;;;15.93;3.90;;;;;;;;;;5068450;28;20028;-74
2022/04/13 11:45:12;;;;;;;10.02;4.22;;;;;;;;;;5069451;28;20110;-74
2022/04/13 11:47:43;;;;;;;13.77;4.25;;;;;;;;;;5070925;28;20039;-74
2022/04/13 11:50:15;;;;;;;9.93;4.07;;;;;;;;;;5084316;28;20024;-74
2022/04/13 11:52:43;;;;;;;9.48;3.80;;;;;;;;;;5064724;28;20036;-78
2022/04/13 11:55:30;;;;;;;6.43;3.22;;;;;;;;;;5068042;28;20024;-78
2022/04/13 11:58:01;;;;;;;3.40;2.40;;;;;;;;;;5064134;28;20058;-79
2022/04/13 12:00:44;;;;;;;9.60;2.40;;;;;;;;;;5080272;28;20035;-79
2022/04/13 12:03:14;;;;;;;8.30;2.90;;;;;;;;;;5074014;28;20102;-79
2022/04/13 12:05:48;;;;;;;11.27;3.00;;;;;;;;;;5067082;28;20037;-79
2022/04/13 12:08:16;;;;;;;7.47;2.80;;;;;;;;;;5070565;28;20505;-79
2022/04/13 12:10:51;;;;;;;6.18;2.83;;;;;;;;;;5071896;28;20032;-79
2022/04/13 12:13:17;;;;;;;5.22;1.92;;;;;;;;;;5063835;28;20278;-78
2022/04/13 12:15:43;;;;;;;9.90;2.40;;;;;;;;;;5082303;28;20115;-79
2022/04/13 12:18:10;;;;;;;5.05;2.10;;;;;;;;;;5067516;28;20032;-79
2022/04/13 12:20:36;;;;;;;8.77;2.40;;;;;;;;;;5068443;28;20032;-78
2022/04/13 12:23:20;;;;;;;5.45;1.98;;;;;;;;;;5050163;28;20416;-75
2022/04/13 12:25:48;;;;;;;9.90;2.50;;;;;;;;;;5082968;28;20016;-74
2022/04/13 12:28:15;;;;;;;6.57;2.20;;;;;;;;;;5086471;28;20028;-73
2022/04/13 12:30:41;;;;;;;3.80;2.35;;;;;;;;;;5059227;28;20101;-74
2022/04/13 12:33:25;;;;;;;7.93;2.33;;;;;;;;;;5065249;28;20044;-73
2022/04/13 12:35:53;;;;;;;8.75;2.28;;;;;;;;;;5066573;28;20028;-74
2022/04/13 12:38:34;;;;;;;5.28;1.90;;;;;;;;;;5061242;28;20029;-74
2022/04/13 12:41:05;;;;;;;8.45;1.92;;;;;;;;;;5065027;28;20108;-74
2022/04/13 12:43:31;;;;;;;3.83;1.80;;;;;;;;;;5066505;28;20021;-78
2022/04/13 12:45:57;;;;;;;8.00;2.35;;;;;;;;;;5047929;28;20028;-79
2022/04/13 12:48:27;;;;;;;8.98;2.13;;;;;;;;;;5066344;28;20112;-79
2022/04/13 12:51:00;;;;;;;4.10;1.50;;;;;;;;;;5065433;28;20029;-78
2022/04/13 12:53:27;;;;;;;5.35;2.17;;;;;;;;;;5067189;28;20028;-79
2022/04/13 12:55:57;;;;;;;4.82;2.38;;;;;;;;;;5050144;28;20102;-74
2022/04/13 12:58:23;;;;;;;6.55;1.70;;;;;;;;;;5084298;28;20023;-74
2022/04/13 13:00:54;;;;;;;6.57;2.70;;;;;;;;;;5065530;28;20495;-75
2022/04/13 13:03:21;;;;;;;5.50;2.05;;;;;;;;;;5064805;28;20518;-74
2022/04/13 13:05:47;;;;;;;8.57;1.95;;;;;;;;;;5046243;28;20024;-74
2022/04/13 13:08:14;;;;;;;4.78;2.03;;;;;;;;;;5061737;28;20135;-75
2022/04/13 13:10:45;;;;;;;3.15;1.60;;;;;;;;;;5063376;28;20521;-74
2022/04/13 13:13:18;;;;;;;7.28;1.60;;;;;;;;;;5055875;28;20047;-75
2022/04/13 13:15:44;;;;;;;10.50;1.92;;;;;;;;;;5080139;28;20020;-74
2022/04/13 13:18:10;;;;;;;5.18;1.88;;;;;;;;;;5065651;28;20029;-75
2022/04/13 13:20:54;;;;;;;6.40;1.73;;;;;;;;;;5064049;28;20459;-75
2022/04/13 13:23:27;;;;;;;6.82;1.98;;;;;;;;;;5062261;28;20045;-75
2022/04/13 13:25:53;;;;;;;6.05;1.88;;;;;;;;;;5067165;28;20048;-74
2022/04/13 13:28:26;;;;;;;9.73;2.50;;;;;;;;;;5068197;28;20032;-74
2022/04/13 13:30:54;;;;;;;3.25;1.48;;;;;;;;;;5070025;28;20494;-74
2022/04/13 13:33:20;;;;;;;7.63;2.25;;;;;;;;;;5062916;28;20040;-80
2022/04/13 13:35:45;;;;;;;6.50;1.73;;;;;;;;;;5070214;28;20024;-79
2022/04/13 13:38:16;;;;;;;4.97;1.75;;;;;;;;;;5070134;28;20051;-80
2022/04/13 13:40:43;;;;;;;4.68;1.98;;;;;;;;;;5071027;28;20119;-79
2022/04/13 13:43:15;;;;;;;3.40;1.75;;;;;;;;;;5067294;28;20104;-79
2022/04/13 13:45:45;;;;;;;6.63;1.83;;;;;;;;;;5069379;28;20082;-79
2022/04/13 13:48:13;;;;;;;5.50;1.50;;;;;;;;;;5064006;28;20032;-79
2022/04/13 13:50:43;;;;;;;5.90;1.95;;;;;;;;;;5067272;28;20037;-79
2022/04/13 13:53:10;;;;;;;12.07;2.22;;;;;;;;;;5069927;28;20020;-79
2022/04/13 13:55:37;;;;;;;12.35;1.95;;;;;;;;;;5070357;28;20697;-79
2022/04/13 13:58:04;;;;;;;6.47;1.60;;;;;;;;;;5063479;28;20024;-79
2022/04/13 14:00:34;;;;;;;6.65;1.52;;;;;;;;;;5062981;28;20036;-79
2022/04/13 14:03:04;;;;;;;5.60;1.80;;;;;;;;;;5069495;28;20063;-79
2022/04/13 14:05:30;;;;;;;5.57;2.30;;;;;;;;;;5067595;28;20028;-79
2022/04/13 14:07:57;;;;;;;9.20;1.98;;;;;;;;;;5067823;28;20503;-79
2022/04/13 14:10:24;;;;;;;4.07;1.80;;;;;;;;;;5063389;28;20696;-80
2022/04/13 14:12:50;;;;;;;7.35;2.13;;;;;;;;;;5066174;28;20024;-79
2022/04/13 14:15:16;;;;;;;6.13;2.33;;;;;;;;;;5066706;28;20079;-79
2022/04/13 14:17:44;;;;;;;7.75;2.03;;;;;;;;;;5069529;28;20025;-79
2022/04/13 14:20:11;;;;;;;7.25;2.22;;;;;;;;;;5067966;28;20036;-80
2022/04/13 14:22:38;;;;;;;5.32;1.90;;;;;;;;;;5068458;28;20147;-79
2022/04/13 14:25:05;;;;;;;7.40;1.90;;;;;;;;;;5068217;28;20067;-79
2022/04/13 14:27:31;;;;;;;5.95;1.85;;;;;;;;;;5067207;28;20182;-79
2022/04/13 14:29:57;;;;;;;4.85;1.73;;;;;;;;;;5082245;28;20364;-75
2022/04/13 14:32:27;;;;;;;10.20;1.77;;;;;;;;;;5070055;28;20024;-79